Weather at Dijon-Bourgogne Airport

Public forecast

Using degrees Celsius for public forecast. Weather courtesy of forecast.io.

Current aviation weather report (METAR) for Dijon-Bourgogne Airport

Retrieved 2020/10/28 10:00 UTC (1 hour ago):

LFSD 281000Z AUTO 19015KT 9999 FEW046 OVC056 14/11 Q1017

Aviation forecast (TAF) for Dijon-Bourgogne Airport

Forecast is more than 12 hours old.

Retrieved 2015/06/01 00:11 UTC (5 years ago):

TAF LFSD 010600Z 0100/0124 CNL